Livermore, Kentucky
Current Conditions -  °F | °C
As of 3:56 PM on Monday 20 Oct 2014 (Local Time) from KOWB Reporting Station
Clear Clear  
Wind Chill: 71°   Ceiling: Unl
Heat Index: 71°   Visibility: 10mi
Dew Point: 54°   Wind: 15mph
Humidity: 55%   Direction: 250°WSW
Pressure: 29.9"   Gusts: 22mph
Location:  37.49°N, 87.13°W
Report Text: KOWB 202056Z 25013G19KT 10SM CLR 22/12 A2990 RMK AO2 56018 60000 T02160122 RAB46E53 P0000 SLP124
Loading
Personal Weather Stations






























Interactive Weather Map
Tropical Storm Tracking
New forecast layout! Learn more

10-Day Weather Forecast

Advertisements
Track Severe Weather on mobile